createdAt,value
2016-04-06T00:00:38.148Z,12.47
2016-04-06T00:01:38.151Z,12.46
2016-04-06T00:02:37.982Z,12.45
2016-04-06T00:03:38.140Z,12.52
2016-04-06T00:04:38.127Z,12.47
2016-04-06T00:05:38.114Z,12.42
2016-04-06T00:06:38.132Z,12.34
2016-04-06T00:07:38.151Z,12.24
2016-04-06T00:08:38.137Z,12.21
2016-04-06T00:09:38.140Z,12.19
2016-04-06T00:10:38.111Z,12.17
2016-04-06T00:11:38.114Z,12.2
2016-04-06T00:12:37.961Z,12.19
2016-04-06T00:13:38.150Z,12.17
2016-04-06T00:14:38.122Z,12.19
2016-04-06T00:15:38.094Z,12.1
2016-04-06T00:16:38.096Z,12.17
2016-04-06T00:17:38.099Z,12.02
2016-04-06T00:18:38.102Z,12.07
2016-04-06T00:19:38.120Z,12.07
2016-04-06T00:20:38.122Z,12.01
2016-04-06T00:21:38.079Z,11.94
2016-04-06T00:22:38.082Z,11.94
2016-04-06T00:23:38.100Z,11.9
2016-04-06T00:24:38.071Z,11.9
2016-04-06T00:25:38.090Z,11.88
2016-04-06T00:26:38.092Z,11.85
2016-04-06T00:27:38.079Z,11.79
2016-04-06T00:28:38.082Z,11.88
2016-04-06T00:29:38.069Z,11.79
2016-04-06T00:30:38.088Z,11.8
2016-04-06T00:31:38.060Z,11.82
2016-04-06T00:32:38.077Z,11.79
2016-04-06T00:33:38.065Z,11.72
2016-04-06T00:34:38.051Z,11.67
2016-04-06T00:35:38.054Z,11.69
2016-04-06T00:36:38.040Z,11.67
2016-04-06T00:37:38.043Z,11.75
2016-04-06T00:38:38.046Z,11.62
2016-04-06T00:39:38.018Z,11.55
2016-04-06T00:40:38.037Z,11.58
2016-04-06T00:41:38.023Z,11.52
2016-04-06T00:42:38.042Z,11.54
2016-04-06T00:43:38.028Z,11.54
2016-04-06T00:44:38.047Z,11.46
2016-04-06T00:45:38.050Z,11.44
2016-04-06T00:46:38.036Z,11.4
2016-04-06T00:47:37.868Z,11.46
2016-04-06T00:48:38.011Z,11.39
2016-04-06T00:49:38.014Z,11.39
2016-04-06T00:50:38.016Z,11.36
2016-04-06T00:51:38.003Z,11.4
2016-04-06T00:52:37.991Z,11.39
2016-04-06T00:53:38.008Z,11.29
2016-04-06T00:54:37.996Z,11.27
2016-04-06T00:55:37.998Z,11.33
2016-04-06T00:56:37.830Z,11.29
2016-04-06T00:57:38.004Z,11.25
2016-04-06T00:58:53.163Z,11.24
2016-04-06T00:59:38.760Z,11.28
2016-04-06T01:00:37.965Z,11.29
2016-04-06T01:01:37.952Z,11.25
2016-04-06T01:02:38.611Z,11.22
2016-04-06T01:03:37.973Z,11.06
2016-04-06T01:04:38.757Z,11.1
2016-04-06T01:05:39.509Z,11.07
2016-04-06T01:06:38.762Z,11.09
2016-04-06T01:07:37.968Z,11.1
2016-04-06T01:08:39.487Z,11.1
2016-04-06T01:09:39.302Z,11.1
2016-04-06T01:10:38.586Z,11.06
2016-04-06T01:11:37.917Z,10.99
2016-04-06T01:12:38.606Z,11.03
2016-04-06T01:13:38.140Z,10.96
2016-04-06T01:14:39.315Z,10.84
2016-04-06T01:15:37.912Z,11.03
2016-04-06T01:16:37.931Z,10.88
2016-04-06T01:17:37.933Z,10.89
2016-04-06T01:18:37.936Z,10.96
2016-04-06T01:19:38.219Z,10.85
2016-04-06T01:20:37.909Z,10.82
2016-04-06T01:21:37.912Z,10.76
2016-04-06T01:22:37.914Z,10.76
2016-04-06T01:23:37.886Z,10.78
2016-04-06T01:24:37.888Z,10.78
2016-04-06T01:25:37.892Z,10.71
2016-04-06T01:26:37.879Z,10.66
2016-04-06T01:27:37.897Z,10.68
2016-04-06T01:28:37.900Z,10.66
2016-04-06T01:29:37.871Z,10.6
2016-04-06T01:30:37.874Z,10.59
2016-04-06T01:31:37.845Z,10.59
2016-04-06T01:32:37.848Z,10.59
2016-04-06T01:33:37.850Z,10.52
2016-04-06T01:34:37.853Z,10.47
2016-04-06T01:35:37.840Z,10.51
2016-04-06T01:36:37.843Z,10.51
2016-04-06T01:37:37.830Z,10.4
2016-04-06T01:38:37.849Z,10.47
2016-04-06T01:39:37.820Z,10.4
2016-04-06T01:40:37.838Z,10.33
2016-04-06T01:41:37.809Z,10.34
2016-04-06T01:42:37.828Z,10.38
2016-04-06T01:43:37.815Z,10.27
2016-04-06T01:44:37.818Z,10.26
2016-04-06T01:45:37.806Z,10.33
2016-04-06T01:46:37.792Z,10.29
2016-04-06T01:47:37.811Z,10.22
2016-04-06T01:48:37.813Z,10.18
2016-04-06T01:49:37.800Z,10.2
2016-04-06T01:50:37.786Z,10.18
2016-04-06T01:51:37.789Z,10.2
2016-04-06T01:52:37.792Z,10.18
2016-04-06T01:53:37.779Z,10.09
2016-04-06T01:54:37.767Z,10.08
2016-04-06T01:55:37.785Z,10.12
2016-04-06T01:56:37.756Z,10.08
2016-04-06T01:57:37.759Z,10.08
2016-04-06T01:58:37.761Z,10.07
2016-04-06T01:59:37.749Z,10.12
2016-04-06T02:00:37.751Z,10.05
2016-04-06T02:01:37.785Z,10.09
2016-04-06T02:02:37.740Z,10.08
2016-04-06T02:03:37.743Z,10.08
2016-04-06T02:04:37.746Z,10.12
2016-04-06T02:05:37.734Z,10.11
2016-04-06T02:06:37.737Z,10.07
2016-04-06T02:07:37.004Z,10.11
2016-04-06T02:08:37.874Z,10.11
2016-04-06T02:09:37.737Z,10.11
2016-04-06T02:10:37.708Z,10.09
2016-04-06T02:11:37.711Z,10.01
2016-04-06T02:12:37.729Z,10.01
2016-04-06T02:13:37.701Z,9.99
2016-04-06T02:14:37.688Z,10.02
2016-04-06T02:15:37.691Z,10.12
2016-04-06T02:16:37.679Z,9.97
2016-04-06T02:17:38.634Z,10.01
2016-04-06T02:18:37.684Z,9.97
2016-04-06T02:19:38.873Z,10.07
2016-04-06T02:20:37.657Z,9.99
2016-04-06T02:21:37.660Z,10.01
2016-04-06T02:22:38.366Z,10.04
2016-04-06T02:23:38.744Z,10.07
2016-04-06T02:24:38.106Z,10.09
2016-04-06T02:25:37.656Z,10.11
2016-04-06T02:26:37.986Z,10.12
2016-04-06T02:27:39.083Z,10.07
2016-04-06T02:28:39.085Z,10.05
2016-04-06T02:29:38.338Z,10.18
2016-04-06T02:30:37.637Z,10.09
2016-04-06T02:31:37.906Z,10.18
2016-04-06T02:32:38.409Z,10.18
2016-04-06T02:33:38.021Z,10.2
2016-04-06T02:34:38.414Z,10.23
2016-04-06T02:35:38.136Z,10.2
2016-04-06T02:36:37.591Z,10.26
2016-04-06T02:37:38.063Z,10.22
2016-04-06T02:38:37.566Z,10.26
2016-04-06T02:39:37.583Z,10.18
2016-04-06T02:40:37.602Z,10.22
2016-04-06T02:41:37.574Z,10.17
2016-04-06T02:42:37.576Z,10.2
2016-04-06T02:43:37.579Z,10.17
2016-04-06T02:44:37.566Z,10.2
2016-04-06T02:45:37.569Z,10.22
2016-04-06T02:46:37.555Z,10.22
2016-04-06T02:47:37.543Z,10.22
2016-04-06T02:48:37.560Z,10.18
2016-04-06T02:49:37.548Z,10.22
2016-04-06T02:50:37.535Z,10.25
2016-04-06T02:51:37.523Z,10.2
2016-04-06T02:52:37.541Z,10.25
2016-04-06T02:53:37.528Z,10.25
2016-04-06T02:54:37.515Z,10.23
2016-04-06T02:55:37.517Z,10.2
2016-04-06T02:56:37.520Z,10.23
2016-04-06T02:57:37.507Z,10.2
2016-04-06T02:58:37.509Z,10.27
2016-04-06T02:59:37.512Z,10.3
2016-04-06T03:00:37.484Z,10.32
2016-04-06T03:01:37.503Z,10.32
2016-04-06T03:02:37.490Z,10.34
2016-04-06T03:03:37.492Z,10.3
2016-04-06T03:04:37.479Z,10.29
2016-04-06T03:05:37.482Z,10.32
2016-04-06T03:06:37.469Z,10.29
2016-04-06T03:07:37.487Z,10.29
2016-04-06T03:08:37.458Z,10.27
2016-04-06T03:09:37.492Z,10.3
2016-04-06T03:10:37.479Z,10.34
2016-04-06T03:11:37.466Z,10.33
2016-04-06T03:12:37.297Z,10.33
2016-04-06T03:13:37.472Z,10.29
2016-04-06T03:14:37.428Z,10.2
2016-04-06T03:15:37.415Z,10.32
2016-04-06T03:16:37.418Z,10.33
2016-04-06T03:17:37.638Z,10.32
2016-04-06T03:18:37.423Z,10.32
2016-04-06T03:19:37.426Z,10.25
2016-04-06T03:20:37.413Z,10.27
2016-04-06T03:21:37.400Z,10.27
2016-04-06T03:22:37.402Z,10.23
2016-04-06T03:23:37.405Z,10.17
2016-04-06T03:24:37.392Z,10.22
2016-04-06T03:25:37.410Z,10.17
2016-04-06T03:26:37.381Z,10.23
2016-04-06T03:27:37.400Z,10.22
2016-04-06T03:28:37.372Z,10.25
2016-04-06T03:29:37.358Z,10.18
2016-04-06T03:30:37.378Z,10.23
2016-04-06T03:31:37.380Z,10.23
2016-04-06T03:32:37.383Z,10.14
2016-04-06T03:33:37.370Z,10.22
2016-04-06T03:34:37.373Z,10.25
2016-04-06T03:35:37.344Z,10.2
2016-04-06T03:36:39.253Z,10.2
2016-04-06T03:37:37.786Z,10.09
2016-04-06T03:38:37.336Z,10.11
2016-04-06T03:39:37.307Z,10.08
2016-04-06T03:40:37.341Z,10.08
2016-04-06T03:41:37.922Z,10.11
2016-04-06T03:42:37.863Z,10.08
2016-04-06T03:43:37.303Z,10.08
2016-04-06T03:44:38.133Z,10.02
2016-04-06T03:45:37.293Z,9.99
2016-04-06T03:46:38.185Z,9.97
2016-04-06T03:47:37.829Z,10.05
2016-04-06T03:48:37.301Z,10.04
2016-04-06T03:49:37.475Z,10.04
2016-04-06T03:50:37.493Z,10.02
2016-04-06T03:51:38.668Z,9.99
2016-04-06T03:52:39.452Z,9.99
2016-04-06T03:53:37.267Z,9.99
2016-04-06T03:54:37.270Z,9.97
2016-04-06T03:55:38.070Z,9.9
2016-04-06T03:56:37.259Z,9.91
2016-04-06T03:57:37.246Z,9.87
2016-04-06T03:58:37.280Z,9.96
2016-04-06T03:59:37.237Z,9.79
2016-04-06T04:00:37.239Z,9.87
2016-04-06T04:01:37.226Z,9.87
2016-04-06T04:02:37.229Z,9.89
2016-04-06T04:03:37.216Z,9.78
2016-04-06T04:04:37.219Z,9.75
2016-04-06T04:05:37.221Z,9.69
2016-04-06T04:06:37.208Z,9.69
2016-04-06T04:07:37.227Z,9.68
2016-04-06T04:08:37.214Z,9.69
2016-04-06T04:09:37.201Z,9.69
2016-04-06T04:10:37.203Z,9.68
2016-04-06T04:11:37.175Z,9.54
2016-04-06T04:12:37.193Z,9.56
2016-04-06T04:13:37.180Z,9.56
2016-04-06T04:14:37.183Z,9.48
2016-04-06T04:15:37.170Z,9.54
2016-04-06T04:16:37.172Z,9.47
2016-04-06T04:17:37.144Z,9.5
2016-04-06T04:18:37.163Z,9.43
2016-04-06T04:19:37.149Z,9.47
2016-04-06T04:20:37.152Z,9.31
2016-04-06T04:21:37.155Z,9.38
2016-04-06T04:22:37.142Z,9.38
2016-04-06T04:23:37.113Z,9.36
2016-04-06T04:24:36.976Z,9.33
2016-04-06T04:25:37.134Z,9.26
2016-04-06T04:26:37.121Z,9.32
2016-04-06T04:27:37.124Z,9.29
2016-04-06T04:28:37.111Z,9.32
2016-04-06T04:29:37.099Z,9.29
2016-04-06T04:30:37.101Z,9.31
2016-04-06T04:31:37.088Z,9.32
2016-04-06T04:32:37.090Z,9.32
2016-04-06T04:33:37.093Z,9.33
2016-04-06T04:34:37.299Z,9.31
2016-04-06T04:35:37.083Z,9.23
2016-04-06T04:36:37.086Z,9.32
2016-04-06T04:37:37.072Z,9.33
2016-04-06T04:38:37.075Z,9.35
2016-04-06T04:39:36.344Z,9.33
2016-04-06T04:40:37.050Z,9.32
2016-04-06T04:41:37.052Z,9.32
2016-04-06T04:42:37.039Z,9.29
2016-04-06T04:43:37.042Z,9.32
2016-04-06T04:44:37.029Z,9.35
2016-04-06T04:45:37.047Z,9.26
2016-04-06T04:46:37.019Z,9.33
2016-04-06T04:47:37.021Z,9.36
2016-04-06T04:48:37.009Z,9.39
2016-04-06T04:49:37.340Z,9.29
2016-04-06T04:50:36.998Z,9.36
2016-04-06T04:51:37.016Z,9.38
2016-04-06T04:52:36.988Z,9.29
2016-04-06T04:53:36.990Z,9.32
2016-04-06T04:54:36.994Z,9.38
2016-04-06T04:55:37.137Z,9.35
2016-04-06T04:56:38.359Z,9.33
2016-04-06T04:57:37.002Z,9.35
2016-04-06T04:58:36.989Z,9.4
2016-04-06T05:00:38.229Z,9.35
2016-04-06T05:01:36.950Z,9.36
2016-04-06T05:02:39.031Z,9.4
2016-04-06T05:03:37.298Z,9.42
2016-04-06T05:04:37.895Z,9.43
2016-04-06T05:05:37.428Z,9.47
2016-04-06T05:06:37.198Z,9.5
2016-04-06T05:07:37.264Z,9.46
2016-04-06T05:08:36.922Z,9.36
2016-04-06T05:09:36.909Z,9.47
2016-04-06T05:10:37.787Z,9.51
2016-04-06T05:11:38.508Z,9.48
2016-04-06T05:12:38.495Z,9.51
2016-04-06T05:13:37.936Z,9.48
2016-04-06T05:14:37.094Z,9.58
2016-04-06T05:15:37.441Z,9.58
2016-04-06T05:16:36.865Z,9.56
2016-04-06T05:17:36.883Z,9.5
2016-04-06T05:18:36.855Z,9.54
2016-04-06T05:19:36.874Z,9.54
2016-04-06T05:20:36.907Z,9.48
2016-04-06T05:21:36.863Z,9.48
2016-04-06T05:22:36.850Z,9.56
2016-04-06T05:23:36.852Z,9.46
2016-04-06T05:24:36.855Z,9.5
2016-04-06T05:25:36.827Z,9.48
2016-04-06T05:26:36.829Z,9.42
2016-04-06T05:27:36.832Z,9.35
2016-04-06T05:28:36.830Z,9.4
2016-04-06T05:29:36.660Z,9.29
2016-04-06T05:30:36.804Z,9.32
2016-04-06T05:31:36.807Z,9.42
2016-04-06T05:32:36.794Z,9.38
2016-04-06T05:33:36.812Z,9.42
2016-04-06T05:34:36.784Z,9.33
2016-04-06T05:35:36.787Z,9.33
2016-04-06T05:36:36.790Z,9.28
2016-04-06T05:37:36.776Z,9.18
2016-04-06T05:38:36.794Z,9.21
2016-04-06T05:39:36.782Z,9.18
2016-04-06T05:40:36.784Z,9.23
2016-04-06T05:41:36.756Z,9.1
2016-04-06T05:42:36.759Z,9.24
2016-04-06T05:43:36.761Z,9.2
2016-04-06T05:44:36.764Z,9.23
2016-04-06T05:45:36.767Z,9.17
2016-04-06T05:46:36.738Z,9.13
2016-04-06T05:47:36.741Z,9.18
2016-04-06T05:48:36.727Z,9.2
2016-04-06T05:49:36.714Z,9.2
2016-04-06T05:50:36.717Z,9.4
2016-04-06T05:51:36.704Z,9.5
2016-04-06T05:52:36.722Z,9.58
2016-04-06T05:53:36.710Z,9.83
2016-04-06T05:54:36.713Z,9.91
2016-04-06T05:55:36.715Z,10.07
2016-04-06T05:56:36.702Z,10.36
2016-04-06T05:57:36.767Z,10.61
2016-04-06T05:58:37.380Z,10.88
2016-04-06T05:59:36.696Z,11.27
2016-04-06T06:00:36.681Z,11.43
2016-04-06T06:01:36.685Z,11.79
2016-04-06T06:02:36.671Z,12.05
2016-04-06T06:03:36.685Z,12.37
2016-04-06T06:04:36.733Z,12.67
2016-04-06T06:05:36.797Z,12.85
2016-04-06T06:06:36.814Z,13.19
2016-04-06T06:07:36.878Z,13.39
2016-04-06T06:08:36.887Z,13.63
2016-04-06T06:09:36.922Z,13.88
2016-04-06T06:10:36.909Z,14.09
2016-04-06T06:11:36.943Z,14.32
2016-04-06T06:12:36.947Z,14.5
2016-04-06T06:13:36.979Z,14.72
2016-04-06T06:14:51.159Z,14.98
2016-04-06T06:15:36.996Z,15.23
2016-04-06T06:16:37.504Z,15.41
2016-04-06T06:17:37.559Z,15.5
2016-04-06T06:18:37.301Z,15.84
2016-04-06T06:19:37.821Z,16
2016-04-06T06:20:37.013Z,16.25
2016-04-06T06:21:38.862Z,16.66
2016-04-06T06:22:37.508Z,16.79
2016-04-06T06:23:37.857Z,17
2016-04-06T06:24:37.611Z,17.03
2016-04-06T06:25:37.833Z,17.22
2016-04-06T06:26:37.039Z,17.38
2016-04-06T06:27:51.246Z,17.52
2016-04-06T06:28:37.062Z,17.64
2016-04-06T06:29:38.924Z,17.87
2016-04-06T06:30:37.365Z,17.96
2016-04-06T06:31:37.321Z,18.18
2016-04-06T06:32:37.121Z,18.39
2016-04-06T06:33:38.046Z,18.63
2016-04-06T06:34:37.204Z,18.81
2016-04-06T06:35:37.457Z,18.92
2016-04-06T06:36:37.101Z,19.02
2016-04-06T06:37:37.119Z,19.1
2016-04-06T06:38:37.106Z,19.31
2016-04-06T06:39:37.093Z,19.33
2016-04-06T06:40:37.112Z,19.36
2016-04-06T06:41:37.115Z,19.39
2016-04-06T06:42:37.117Z,19.56
2016-04-06T06:43:37.120Z,19.62
2016-04-06T06:44:37.138Z,19.77
2016-04-06T06:45:37.141Z,19.81
2016-04-06T06:46:37.159Z,19.94
2016-04-06T06:47:37.161Z,20.1
2016-04-06T06:48:37.180Z,20.2
2016-04-06T06:49:37.183Z,20.26
2016-04-06T06:50:37.201Z,20.31
2016-04-06T06:51:37.203Z,20.43
2016-04-06T06:52:37.206Z,20.42
2016-04-06T06:53:37.225Z,20.48
2016-04-06T06:54:37.227Z,20.52
2016-04-06T06:55:37.214Z,20.59
2016-04-06T06:56:37.233Z,20.66
2016-04-06T06:57:37.267Z,20.54
2016-04-06T06:58:37.269Z,20.66
2016-04-06T06:59:37.287Z,20.72
2016-04-06T07:00:37.274Z,20.79
2016-04-06T07:01:37.309Z,20.88
2016-04-06T07:02:37.296Z,21.1
2016-04-06T07:03:37.314Z,21.09
2016-04-06T07:04:37.316Z,21.29
2016-04-06T07:05:37.319Z,21.34
2016-04-06T07:06:37.338Z,21.49
2016-04-06T07:07:37.340Z,21.5
2016-04-06T07:08:37.359Z,21.52
2016-04-06T07:09:37.377Z,21.44
2016-04-06T07:10:37.380Z,21.47
2016-04-06T07:11:37.382Z,21.56
2016-04-06T07:12:37.401Z,21.69
2016-04-06T07:13:37.418Z,21.8
2016-04-06T07:14:37.421Z,21.94
2016-04-06T07:15:37.455Z,21.86
2016-04-06T07:16:37.442Z,21.68
2016-04-06T07:17:37.476Z,21.64
2016-04-06T07:18:37.479Z,21.69
2016-04-06T07:19:37.466Z,21.82
2016-04-06T07:20:37.501Z,21.67
2016-04-06T07:21:37.519Z,21.47
2016-04-06T07:22:37.506Z,21.49
2016-04-06T07:23:37.525Z,21.49
2016-04-06T07:24:37.543Z,21.47
2016-04-06T07:25:37.545Z,21.56
2016-04-06T07:26:37.578Z,21.54
2016-04-06T07:27:37.566Z,21.72
2016-04-06T07:28:37.584Z,21.83
2016-04-06T07:29:37.602Z,21.92
2016-04-06T07:30:37.636Z,22.18
2016-04-06T07:31:37.655Z,22.25
2016-04-06T07:32:37.641Z,22.21
2016-04-06T07:33:38.161Z,22.17
2016-04-06T07:34:38.366Z,22.24
2016-04-06T07:35:38.478Z,22.33
2016-04-06T07:36:38.574Z,22.37
2016-04-06T07:37:38.140Z,22.37
2016-04-06T07:38:37.705Z,22.14
2016-04-06T07:39:39.130Z,22.03
2016-04-06T07:40:38.820Z,22.1
2016-04-06T07:41:38.104Z,22.18
2016-04-06T07:42:37.779Z,22.25
2016-04-06T07:43:37.796Z,22.35
2016-04-06T07:44:37.815Z,22.47
2016-04-06T07:45:38.818Z,22.51
2016-04-06T07:46:37.821Z,22.58
2016-04-06T07:47:37.854Z,22.73
2016-04-06T07:48:38.170Z,22.88
2016-04-06T07:49:39.032Z,22.98
2016-04-06T07:50:37.925Z,23.01
2016-04-06T07:51:38.068Z,23.04
2016-04-06T07:52:37.914Z,23.04
2016-04-06T07:53:38.667Z,23.13
2016-04-06T07:54:37.967Z,23.13
2016-04-06T07:55:37.953Z,23.23
2016-04-06T07:56:37.972Z,23.28
2016-04-06T07:57:37.991Z,23.36
2016-04-06T07:58:37.994Z,23.39
2016-04-06T07:59:38.011Z,23.35
2016-04-06T08:00:38.030Z,23.16
2016-04-06T08:01:38.063Z,22.94
2016-04-06T08:02:38.051Z,22.9
2016-04-06T08:03:38.100Z,22.79
2016-04-06T08:04:38.102Z,22.57
2016-04-06T08:05:38.121Z,22.55
2016-04-06T08:06:38.124Z,22.42
2016-04-06T08:07:38.127Z,22.52
2016-04-06T08:08:38.161Z,22.47
2016-04-06T08:09:38.163Z,22.43
2016-04-06T08:10:38.182Z,22.42
2016-04-06T08:11:38.185Z,22.33
2016-04-06T08:12:38.421Z,22.21
2016-04-06T08:13:38.221Z,22.18
2016-04-06T08:14:38.240Z,21.92
2016-04-06T08:15:38.257Z,21.67
2016-04-06T08:16:38.260Z,21.38
2016-04-06T08:17:38.262Z,21.24
2016-04-06T08:18:38.281Z,21.09
2016-04-06T08:19:38.284Z,20.91
2016-04-06T08:20:38.333Z,20.72
2016-04-06T08:21:38.305Z,20.61
2016-04-06T08:22:38.339Z,20.42
2016-04-06T08:23:38.342Z,20.16
2016-04-06T08:24:38.345Z,20.01
2016-04-06T08:25:38.378Z,19.91
2016-04-06T08:26:38.381Z,19.77
2016-04-06T08:27:38.383Z,19.74
2016-04-06T08:28:38.403Z,19.54
2016-04-06T08:29:38.389Z,19.43
2016-04-06T08:30:38.423Z,19.28
2016-04-06T08:31:38.425Z,19.16
2016-04-06T08:32:38.444Z,19.16
2016-04-06T08:33:38.431Z,19.02
2016-04-06T08:34:38.450Z,18.98
2016-04-06T08:35:38.594Z,18.92
2016-04-06T08:36:38.471Z,18.88
2016-04-06T08:37:38.473Z,18.85
2016-04-06T08:38:38.491Z,18.73
2016-04-06T08:39:38.494Z,18.75
2016-04-06T08:40:38.497Z,18.7
2016-04-06T08:41:38.484Z,18.62
2016-04-06T08:42:38.487Z,18.7
2016-04-06T08:43:38.505Z,18.67
2016-04-06T08:44:38.508Z,18.72
2016-04-06T08:45:38.510Z,18.75
2016-04-06T08:46:38.513Z,18.7
2016-04-06T08:47:38.532Z,18.69
2016-04-06T08:48:38.534Z,18.84
2016-04-06T08:49:38.536Z,18.73
2016-04-06T08:50:38.587Z,18.67
2016-04-06T08:51:38.542Z,18.67
2016-04-06T08:52:39.748Z,18.69
2016-04-06T08:54:38.565Z,18.8
2016-04-06T08:55:38.568Z,18.82
2016-04-06T08:56:39.212Z,18.9
2016-04-06T08:57:38.573Z,18.98
2016-04-06T08:58:39.998Z,18.99
2016-04-06T08:59:39.516Z,19
2016-04-06T09:00:38.598Z,18.99
2016-04-06T09:01:39.663Z,19.06
2016-04-06T09:03:06.978Z,19.04
2016-04-06T09:03:39.136Z,19.13
2016-04-06T09:04:39.702Z,19.16
2016-04-06T09:05:38.861Z,19.19
2016-04-06T09:06:38.614Z,19.08
2016-04-06T09:07:39.288Z,19.06
2016-04-06T09:08:40.760Z,18.99
2016-04-06T09:09:38.762Z,18.92
2016-04-06T09:10:38.640Z,18.88
2016-04-06T09:11:38.627Z,18.91
2016-04-06T09:12:39.285Z,18.76
2016-04-06T09:13:38.649Z,18.75
2016-04-06T09:14:38.963Z,18.66
2016-04-06T09:15:38.653Z,18.52
2016-04-06T09:16:38.671Z,18.54
2016-04-06T09:17:38.690Z,18.54
2016-04-06T09:18:38.677Z,18.45
2016-04-06T09:19:38.664Z,18.51
2016-04-06T09:20:38.699Z,18.51
2016-04-06T09:21:38.529Z,18.52
2016-04-06T09:22:38.687Z,18.54
2016-04-06T09:23:38.676Z,18.51
2016-04-06T09:24:38.693Z,18.58
2016-04-06T09:25:38.681Z,18.6
2016-04-06T09:26:38.698Z,18.55
2016-04-06T09:27:38.686Z,18.52
2016-04-06T09:28:38.704Z,18.57
2016-04-06T09:29:38.706Z,18.52
2016-04-06T09:30:38.725Z,18.66
2016-04-06T09:31:38.744Z,18.72
2016-04-06T09:32:38.715Z,18.73
2016-04-06T09:33:38.702Z,18.91
2016-04-06T09:34:38.720Z,18.95
2016-04-06T09:35:38.801Z,19.02
2016-04-06T09:36:38.710Z,19.16
2016-04-06T09:37:38.744Z,19.37
2016-04-06T09:38:38.575Z,19.31
2016-04-06T09:39:38.749Z,19.51
2016-04-06T09:40:38.736Z,19.66
2016-04-06T09:41:38.755Z,19.69
2016-04-06T09:42:38.777Z,19.86
2016-04-06T09:43:38.765Z,19.94
2016-04-06T09:44:38.768Z,19.99
2016-04-06T09:45:38.763Z,19.94
2016-04-06T09:46:38.860Z,19.88
2016-04-06T09:47:38.800Z,19.91
2016-04-06T09:48:38.771Z,19.94
2016-04-06T09:49:38.775Z,19.87
2016-04-06T09:50:38.808Z,19.71
2016-04-06T09:51:38.796Z,19.8
2016-04-06T09:52:38.782Z,19.76
2016-04-06T09:53:38.816Z,19.73
2016-04-06T09:54:38.788Z,19.69
2016-04-06T09:55:38.821Z,19.78
2016-04-06T09:56:38.809Z,19.76
2016-04-06T09:57:38.812Z,19.73
2016-04-06T09:58:38.829Z,19.81
2016-04-06T09:59:38.832Z,19.73
2016-04-06T10:00:38.834Z,19.84
2016-04-06T10:01:38.838Z,19.76
2016-04-06T10:02:38.840Z,19.73
2016-04-06T10:03:38.859Z,19.77
2016-04-06T10:04:38.862Z,19.71
2016-04-06T10:05:38.864Z,19.59
2016-04-06T10:06:38.851Z,19.41
2016-04-06T10:07:38.870Z,19.37
2016-04-06T10:08:38.856Z,19.28
2016-04-06T10:09:38.875Z,19.19
2016-04-06T10:10:38.862Z,19.02
2016-04-06T10:12:39.180Z,18.8
2016-04-06T10:13:39.276Z,18.73
2016-04-06T10:14:38.903Z,18.65
2016-04-06T10:15:39.453Z,18.66
2016-04-06T10:17:40.850Z,18.63
2016-04-06T10:18:40.399Z,18.67
2016-04-06T10:19:39.433Z,18.76
2016-04-06T10:20:40.061Z,18.84
2016-04-06T10:21:38.922Z,18.94
2016-04-06T10:22:39.769Z,19.04
2016-04-06T10:23:39.132Z,19.11
2016-04-06T10:24:39.243Z,19.16
2016-04-06T10:25:38.980Z,19.19
2016-04-06T10:26:40.452Z,19.22
2016-04-06T10:27:38.986Z,19.26
2016-04-06T10:28:39.520Z,19.22
2016-04-06T10:29:39.334Z,19.13
2016-04-06T10:30:38.932Z,19.11
2016-04-06T10:31:39.371Z,19.02
2016-04-06T10:32:38.968Z,19.02
2016-04-06T10:33:38.954Z,18.94
2016-04-06T10:34:38.958Z,18.94
2016-04-06T10:35:38.960Z,18.91
2016-04-06T10:36:39.009Z,18.81
2016-04-06T10:37:38.965Z,18.84
2016-04-06T10:38:38.984Z,18.87
2016-04-06T10:39:38.987Z,18.8
2016-04-06T10:40:38.973Z,18.88
2016-04-06T10:41:38.976Z,18.94
2016-04-06T10:42:38.979Z,18.95
2016-04-06T10:43:38.997Z,18.95
2016-04-06T10:44:38.984Z,18.95
2016-04-06T10:45:38.987Z,19.02
2016-04-06T10:46:39.022Z,18.94
2016-04-06T10:47:38.978Z,18.94
2016-04-06T10:48:39.011Z,19.02
2016-04-06T10:49:39.013Z,19.08
2016-04-06T10:50:39.016Z,19.19
2016-04-06T10:51:39.035Z,19.31
2016-04-06T10:52:39.038Z,19.37
2016-04-06T10:53:39.024Z,19.31
2016-04-06T10:54:39.027Z,19.36
2016-04-06T10:55:38.905Z,19.41
2016-04-06T10:56:39.063Z,19.32
2016-04-06T10:57:39.051Z,19.1
2016-04-06T10:58:39.069Z,19
2016-04-06T10:59:39.040Z,19.02
2016-04-06T11:00:39.074Z,18.95
2016-04-06T11:01:39.029Z,19
2016-04-06T11:02:39.065Z,18.94
2016-04-06T11:03:39.035Z,19.1
2016-04-06T11:04:39.069Z,19.14
2016-04-06T11:05:39.072Z,19.19
2016-04-06T11:06:39.091Z,19.07
2016-04-06T11:07:39.078Z,18.99
2016-04-06T11:08:39.080Z,19
2016-04-06T11:09:39.068Z,19.06
2016-04-06T11:10:39.117Z,18.99
2016-04-06T11:11:39.072Z,19.04
2016-04-06T11:12:39.107Z,19
2016-04-06T11:13:39.095Z,19.08
2016-04-06T11:14:39.081Z,19.13
2016-04-06T11:15:39.114Z,19.36
2016-04-06T11:16:39.117Z,19.37
2016-04-06T11:17:39.136Z,19.47
2016-04-06T11:18:39.107Z,19.65
2016-04-06T11:19:39.125Z,19.71
2016-04-06T11:20:39.128Z,19.87
2016-04-06T11:21:39.131Z,19.95
2016-04-06T11:22:39.118Z,19.99
2016-04-06T11:23:39.136Z,20.05
2016-04-06T11:24:39.124Z,20.11
2016-04-06T11:25:39.126Z,20.28
2016-04-06T11:26:39.144Z,20.33
2016-04-06T11:27:39.147Z,20.41
2016-04-06T11:28:39.165Z,20.42
2016-04-06T11:29:39.152Z,20.41
2016-04-06T11:30:53.342Z,20.26
2016-04-06T11:31:39.173Z,20.24
2016-04-06T11:33:40.023Z,19.95
2016-04-06T11:34:39.182Z,19.96
2016-04-06T11:35:39.965Z,19.94
2016-04-06T11:36:39.203Z,19.88
2016-04-06T11:37:41.174Z,19.88
2016-04-06T11:38:39.817Z,19.94
2016-04-06T11:40:53.400Z,20.18
2016-04-06T11:41:39.654Z,20.13
2016-04-06T11:42:40.047Z,20.23
2016-04-06T11:43:40.112Z,20.32
2016-04-06T11:44:39.364Z,20.38
2016-04-06T11:45:41.820Z,20.41
2016-04-06T11:46:39.605Z,20.31
2016-04-06T11:47:39.967Z,20.13
2016-04-06T11:48:39.750Z,20.02
2016-04-06T11:49:39.253Z,19.86
2016-04-06T11:50:39.694Z,19.95
2016-04-06T11:51:39.258Z,19.78
2016-04-06T11:52:39.308Z,19.61
2016-04-06T11:53:39.248Z,19.47
2016-04-06T11:54:39.266Z,19.48
2016-04-06T11:55:39.285Z,19.58
2016-04-06T11:56:39.272Z,19.41
2016-04-06T11:57:39.275Z,19.1
2016-04-06T11:58:39.277Z,19.02
2016-04-06T11:59:39.311Z,18.92
2016-04-06T12:00:39.282Z,18.9
2016-04-06T12:01:39.316Z,18.84
2016-04-06T12:02:39.288Z,18.76
2016-04-06T12:03:39.322Z,18.7
2016-04-06T12:04:39.293Z,18.78
2016-04-06T12:05:39.312Z,18.8
2016-04-06T12:06:39.314Z,18.8
2016-04-06T12:07:39.325Z,18.78
2016-04-06T12:08:39.311Z,18.87
2016-04-06T12:09:39.329Z,18.81
2016-04-06T12:10:39.332Z,18.84
2016-04-06T12:11:39.319Z,18.73
2016-04-06T12:12:39.338Z,18.67
2016-04-06T12:13:39.324Z,18.57
2016-04-06T12:14:39.358Z,18.54
2016-04-06T12:15:39.346Z,18.5
2016-04-06T12:16:39.348Z,18.45
2016-04-06T12:17:39.353Z,18.57
2016-04-06T12:18:39.356Z,18.48
2016-04-06T12:19:39.374Z,18.44
2016-04-06T12:20:39.361Z,18.5
2016-04-06T12:21:39.364Z,18.58
2016-04-06T12:22:39.350Z,18.54
2016-04-06T12:23:39.369Z,18.52
2016-04-06T12:24:39.372Z,18.48
2016-04-06T12:25:39.390Z,18.54
2016-04-06T12:26:39.392Z,18.45
2016-04-06T12:27:39.380Z,18.48
2016-04-06T12:28:39.397Z,18.52
2016-04-06T12:29:39.385Z,18.55
2016-04-06T12:30:39.388Z,18.52
2016-04-06T12:31:39.406Z,18.5
2016-04-06T12:32:39.393Z,18.55
2016-04-06T12:33:39.412Z,18.52
2016-04-06T12:34:39.399Z,18.45
2016-04-06T12:35:39.432Z,18.45
2016-04-06T12:36:39.419Z,18.32
2016-04-06T12:37:39.422Z,18.27
2016-04-06T12:38:39.409Z,18.17
2016-04-06T12:39:39.428Z,18.1
2016-04-06T12:40:39.430Z,17.93
2016-04-06T12:41:39.433Z,17.84
2016-04-06T12:42:39.420Z,17.75
2016-04-06T12:43:39.438Z,17.63
2016-04-06T12:44:39.426Z,17.55
2016-04-06T12:45:39.460Z,17.41
2016-04-06T12:46:39.415Z,17.44
2016-04-06T12:47:39.433Z,17.22
2016-04-06T12:48:39.437Z,17.23
2016-04-06T12:49:40.407Z,17.19
2016-04-06T12:50:40.738Z,17.08
2016-04-06T12:51:40.256Z,17.08
2016-04-06T12:52:39.448Z,17.03
2016-04-06T12:53:39.809Z,16.96
2016-04-06T12:54:40.249Z,16.96
2016-04-06T12:55:41.128Z,16.98
2016-04-06T12:56:39.941Z,16.97
2016-04-06T12:57:40.820Z,17.03
2016-04-06T12:58:39.869Z,17.04
2016-04-06T12:59:39.450Z,17.04
2016-04-06T13:00:40.172Z,17.11
2016-04-06T13:01:40.269Z,17.06
2016-04-06T13:02:39.724Z,17.06
2016-04-06T13:03:39.460Z,17.16
2016-04-06T13:04:41.152Z,17.07
2016-04-06T13:05:41.669Z,17.07